sensor_id;sensor_type;location;lat;lon;timestamp;P1;durP1;ratioP1;P2;durP2;ratioP2
59571;SDS011;59406;45.602;11.904;2022-07-29T00:00:08;13.27;;;8.87;;
59571;SDS011;59406;45.602;11.904;2022-07-29T00:02:35;14.57;;;9.20;;
59571;SDS011;59406;45.602;11.904;2022-07-29T00:05:02;11.90;;;7.22;;
59571;SDS011;59406;45.602;11.904;2022-07-29T00:07:29;9.60;;;5.95;;
59571;SDS011;59406;45.602;11.904;2022-07-29T00:09:55;8.38;;;4.00;;
59571;SDS011;59406;45.602;11.904;2022-07-29T00:12:21;6.67;;;3.10;;
59571;SDS011;59406;45.602;11.904;2022-07-29T00:14:48;5.53;;;2.45;;
59571;SDS011;59406;45.602;11.904;2022-07-29T00:17:15;8.95;;;2.10;;
59571;SDS011;59406;45.602;11.904;2022-07-29T00:19:41;6.82;;;2.08;;
59571;SDS011;59406;45.602;11.904;2022-07-29T00:22:07;6.93;;;2.00;;
59571;SDS011;59406;45.602;11.904;2022-07-29T00:24:33;6.67;;;2.00;;
59571;SDS011;59406;45.602;11.904;2022-07-29T00:26:59;4.55;;;1.50;;
59571;SDS011;59406;45.602;11.904;2022-07-29T00:29:25;6.97;;;1.60;;
59571;SDS011;59406;45.602;11.904;2022-07-29T00:31:51;5.87;;;1.20;;
59571;SDS011;59406;45.602;11.904;2022-07-29T00:34:17;6.10;;;0.90;;
59571;SDS011;59406;45.602;11.904;2022-07-29T00:37:01;3.75;;;0.90;;
59571;SDS011;59406;45.602;11.904;2022-07-29T00:39:27;4.75;;;1.25;;
59571;SDS011;59406;45.602;11.904;2022-07-29T00:41:54;6.68;;;1.20;;
59571;SDS011;59406;45.602;11.904;2022-07-29T00:44:20;5.27;;;1.20;;
59571;SDS011;59406;45.602;11.904;2022-07-29T00:46:46;9.82;;;1.20;;
59571;SDS011;59406;45.602;11.904;2022-07-29T00:49:12;5.30;;;1.15;;
59571;SDS011;59406;45.602;11.904;2022-07-29T00:51:39;5.70;;;1.15;;
59571;SDS011;59406;45.602;11.904;2022-07-29T00:54:05;4.80;;;1.20;;
59571;SDS011;59406;45.602;11.904;2022-07-29T00:56:32;4.13;;;1.15;;
59571;SDS011;59406;45.602;11.904;2022-07-29T00:58:59;4.65;;;1.23;;
59571;SDS011;59406;45.602;11.904;2022-07-29T01:01:26;4.10;;;1.00;;
59571;SDS011;59406;45.602;11.904;2022-07-29T01:03:53;4.18;;;1.20;;
59571;SDS011;59406;45.602;11.904;2022-07-29T01:06:19;3.27;;;0.87;;
59571;SDS011;59406;45.602;11.904;2022-07-29T01:08:46;4.43;;;1.08;;
59571;SDS011;59406;45.602;11.904;2022-07-29T01:11:14;4.18;;;1.25;;
59571;SDS011;59406;45.602;11.904;2022-07-29T01:13:42;4.65;;;1.20;;
59571;SDS011;59406;45.602;11.904;2022-07-29T01:16:15;3.83;;;1.20;;
59571;SDS011;59406;45.602;11.904;2022-07-29T01:18:50;4.13;;;1.40;;
59571;SDS011;59406;45.602;11.904;2022-07-29T01:24:18;3.88;;;1.40;;
59571;SDS011;59406;45.602;11.904;2022-07-29T01:27:14;4.63;;;1.35;;
59571;SDS011;59406;45.602;11.904;2022-07-29T01:30:18;3.85;;;1.25;;
59571;SDS011;59406;45.602;11.904;2022-07-29T01:32:48;4.03;;;1.50;;
59571;SDS011;59406;45.602;11.904;2022-07-29T01:35:30;5.50;;;1.63;;
59571;SDS011;59406;45.602;11.904;2022-07-29T01:38:01;4.72;;;1.65;;
59571;SDS011;59406;45.602;11.904;2022-07-29T01:40:47;5.93;;;1.77;;
59571;SDS011;59406;45.602;11.904;2022-07-29T01:43:21;5.07;;;1.48;;
59571;SDS011;59406;45.602;11.904;2022-07-29T01:45:57;5.67;;;1.50;;
59571;SDS011;59406;45.602;11.904;2022-07-29T01:51:14;3.88;;;1.30;;
59571;SDS011;59406;45.602;11.904;2022-07-29T01:54:06;4.80;;;1.80;;
59571;SDS011;59406;45.602;11.904;2022-07-29T01:56:43;5.10;;;1.75;;
59571;SDS011;59406;45.602;11.904;2022-07-29T01:59:10;4.53;;;2.20;;
59571;SDS011;59406;45.602;11.904;2022-07-29T02:01:37;6.07;;;1.85;;
59571;SDS011;59406;45.602;11.904;2022-07-29T02:04:07;5.43;;;2.10;;
59571;SDS011;59406;45.602;11.904;2022-07-29T02:06:36;5.20;;;2.20;;
59571;SDS011;59406;45.602;11.904;2022-07-29T02:09:03;5.97;;;2.60;;
59571;SDS011;59406;45.602;11.904;2022-07-29T02:11:31;5.23;;;2.20;;
59571;SDS011;59406;45.602;11.904;2022-07-29T02:14:00;6.28;;;2.35;;
59571;SDS011;59406;45.602;11.904;2022-07-29T02:16:29;5.60;;;2.13;;
59571;SDS011;59406;45.602;11.904;2022-07-29T02:18:57;5.05;;;2.10;;
59571;SDS011;59406;45.602;11.904;2022-07-29T02:21:26;5.18;;;1.90;;
59571;SDS011;59406;45.602;11.904;2022-07-29T02:23:54;4.93;;;1.67;;
59571;SDS011;59406;45.602;11.904;2022-07-29T02:26:24;4.22;;;1.45;;
59571;SDS011;59406;45.602;11.904;2022-07-29T02:28:52;5.05;;;1.60;;
59571;SDS011;59406;45.602;11.904;2022-07-29T02:31:21;6.20;;;1.60;;
59571;SDS011;59406;45.602;11.904;2022-07-29T02:33:51;4.57;;;1.52;;
59571;SDS011;59406;45.602;11.904;2022-07-29T02:36:18;3.80;;;1.03;;
59571;SDS011;59406;45.602;11.904;2022-07-29T02:38:48;3.83;;;1.48;;
59571;SDS011;59406;45.602;11.904;2022-07-29T02:41:16;5.57;;;1.17;;
59571;SDS011;59406;45.602;11.904;2022-07-29T02:44:05;4.47;;;1.15;;
59571;SDS011;59406;45.602;11.904;2022-07-29T02:46:41;4.53;;;1.20;;
59571;SDS011;59406;45.602;11.904;2022-07-29T02:49:37;5.73;;;1.20;;
59571;SDS011;59406;45.602;11.904;2022-07-29T02:52:30;4.38;;;1.30;;
59571;SDS011;59406;45.602;11.904;2022-07-29T02:57:46;3.10;;;1.10;;
59571;SDS011;59406;45.602;11.904;2022-07-29T03:00:20;4.10;;;1.40;;
59571;SDS011;59406;45.602;11.904;2022-07-29T03:02:50;4.10;;;1.47;;
59571;SDS011;59406;45.602;11.904;2022-07-29T03:05:19;5.18;;;1.70;;
59571;SDS011;59406;45.602;11.904;2022-07-29T03:07:47;4.80;;;1.40;;
59571;SDS011;59406;45.602;11.904;2022-07-29T03:10:16;4.30;;;1.20;;
59571;SDS011;59406;45.602;11.904;2022-07-29T03:12:43;4.20;;;1.60;;
59571;SDS011;59406;45.602;11.904;2022-07-29T03:15:10;4.37;;;1.57;;
59571;SDS011;59406;45.602;11.904;2022-07-29T03:17:37;3.92;;;1.40;;
59571;SDS011;59406;45.602;11.904;2022-07-29T03:20:04;4.18;;;1.60;;
59571;SDS011;59406;45.602;11.904;2022-07-29T03:22:33;4.70;;;1.83;;
59571;SDS011;59406;45.602;11.904;2022-07-29T03:25:09;4.15;;;1.58;;
59571;SDS011;59406;45.602;11.904;2022-07-29T03:27:36;4.53;;;1.73;;
59571;SDS011;59406;45.602;11.904;2022-07-29T03:30:02;4.30;;;1.38;;
59571;SDS011;59406;45.602;11.904;2022-07-29T03:32:30;4.28;;;1.48;;
59571;SDS011;59406;45.602;11.904;2022-07-29T03:34:56;4.20;;;1.30;;
59571;SDS011;59406;45.602;11.904;2022-07-29T03:37:22;5.17;;;1.27;;
59571;SDS011;59406;45.602;11.904;2022-07-29T03:39:48;4.50;;;1.30;;
59571;SDS011;59406;45.602;11.904;2022-07-29T03:42:16;4.72;;;1.90;;
59571;SDS011;59406;45.602;11.904;2022-07-29T03:44:45;4.35;;;1.77;;
59571;SDS011;59406;45.602;11.904;2022-07-29T03:47:14;4.30;;;1.80;;
59571;SDS011;59406;45.602;11.904;2022-07-29T03:49:42;4.53;;;2.17;;
59571;SDS011;59406;45.602;11.904;2022-07-29T03:52:11;4.82;;;1.90;;
59571;SDS011;59406;45.602;11.904;2022-07-29T03:54:39;6.22;;;1.48;;
59571;SDS011;59406;45.602;11.904;2022-07-29T03:57:05;4.40;;;1.48;;
59571;SDS011;59406;45.602;11.904;2022-07-29T03:59:34;6.78;;;2.17;;
59571;SDS011;59406;45.602;11.904;2022-07-29T04:02:03;5.13;;;1.90;;
59571;SDS011;59406;45.602;11.904;2022-07-29T04:04:34;3.63;;;1.17;;
59571;SDS011;59406;45.602;11.904;2022-07-29T04:07:00;5.32;;;2.15;;
59571;SDS011;59406;45.602;11.904;2022-07-29T04:09:26;5.40;;;2.20;;
59571;SDS011;59406;45.602;11.904;2022-07-29T04:11:52;6.13;;;2.30;;
59571;SDS011;59406;45.602;11.904;2022-07-29T04:14:18;5.87;;;2.60;;
59571;SDS011;59406;45.602;11.904;2022-07-29T04:16:46;6.82;;;2.55;;
59571;SDS011;59406;45.602;11.904;2022-07-29T04:19:12;7.00;;;2.92;;
59571;SDS011;59406;45.602;11.904;2022-07-29T04:21:39;5.57;;;2.40;;
59571;SDS011;59406;45.602;11.904;2022-07-29T04:24:06;6.47;;;3.03;;
59571;SDS011;59406;45.602;11.904;2022-07-29T04:26:32;7.82;;;2.63;;
59571;SDS011;59406;45.602;11.904;2022-07-29T04:28:59;6.47;;;2.30;;
59571;SDS011;59406;45.602;11.904;2022-07-29T04:31:25;5.82;;;2.55;;
59571;SDS011;59406;45.602;11.904;2022-07-29T04:33:51;5.57;;;3.13;;
59571;SDS011;59406;45.602;11.904;2022-07-29T04:36:17;7.47;;;3.27;;
59571;SDS011;59406;45.602;11.904;2022-07-29T04:38:43;6.38;;;2.25;;
59571;SDS011;59406;45.602;11.904;2022-07-29T04:41:09;6.03;;;2.95;;
59571;SDS011;59406;45.602;11.904;2022-07-29T04:43:35;6.32;;;2.40;;
59571;SDS011;59406;45.602;11.904;2022-07-29T04:46:02;6.77;;;2.47;;
59571;SDS011;59406;45.602;11.904;2022-07-29T04:48:29;4.75;;;2.33;;
59571;SDS011;59406;45.602;11.904;2022-07-29T04:50:55;6.22;;;2.58;;
59571;SDS011;59406;45.602;11.904;2022-07-29T04:53:21;5.07;;;2.20;;
59571;SDS011;59406;45.602;11.904;2022-07-29T04:55:48;7.20;;;3.40;;
59571;SDS011;59406;45.602;11.904;2022-07-29T04:58:13;6.70;;;3.07;;
59571;SDS011;59406;45.602;11.904;2022-07-29T05:00:42;6.45;;;3.22;;
59571;SDS011;59406;45.602;11.904;2022-07-29T05:03:09;6.43;;;3.35;;
59571;SDS011;59406;45.602;11.904;2022-07-29T05:05:35;5.53;;;3.15;;
59571;SDS011;59406;45.602;11.904;2022-07-29T05:08:01;6.67;;;3.47;;
59571;SDS011;59406;45.602;11.904;2022-07-29T05:10:27;6.43;;;3.38;;
59571;SDS011;59406;45.602;11.904;2022-07-29T05:12:53;5.93;;;3.20;;
59571;SDS011;59406;45.602;11.904;2022-07-29T05:15:19;5.90;;;3.55;;
59571;SDS011;59406;45.602;11.904;2022-07-29T05:17:45;6.27;;;4.03;;
59571;SDS011;59406;45.602;11.904;2022-07-29T05:20:11;7.93;;;3.95;;
59571;SDS011;59406;45.602;11.904;2022-07-29T05:22:37;6.35;;;4.30;;
59571;SDS011;59406;45.602;11.904;2022-07-29T05:25:03;7.18;;;4.05;;
59571;SDS011;59406;45.602;11.904;2022-07-29T05:27:30;6.93;;;3.90;;
59571;SDS011;59406;45.602;11.904;2022-07-29T05:29:55;8.13;;;4.40;;
59571;SDS011;59406;45.602;11.904;2022-07-29T05:32:22;8.48;;;3.97;;
59571;SDS011;59406;45.602;11.904;2022-07-29T05:34:48;6.78;;;4.18;;
59571;SDS011;59406;45.602;11.904;2022-07-29T05:37:14;8.03;;;3.93;;
59571;SDS011;59406;45.602;11.904;2022-07-29T05:39:40;7.32;;;4.20;;
59571;SDS011;59406;45.602;11.904;2022-07-29T05:42:09;7.65;;;4.43;;
59571;SDS011;59406;45.602;11.904;2022-07-29T05:44:39;9.40;;;4.93;;
59571;SDS011;59406;45.602;11.904;2022-07-29T05:47:05;6.65;;;4.45;;
59571;SDS011;59406;45.602;11.904;2022-07-29T05:49:32;8.77;;;4.23;;
59571;SDS011;59406;45.602;11.904;2022-07-29T05:51:58;5.95;;;3.80;;
59571;SDS011;59406;45.602;11.904;2022-07-29T05:54:24;6.95;;;3.75;;
59571;SDS011;59406;45.602;11.904;2022-07-29T05:56:51;7.43;;;4.10;;
59571;SDS011;59406;45.602;11.904;2022-07-29T05:59:17;7.75;;;4.68;;
59571;SDS011;59406;45.602;11.904;2022-07-29T06:01:43;7.20;;;4.27;;
59571;SDS011;59406;45.602;11.904;2022-07-29T06:04:08;6.57;;;4.38;;
59571;SDS011;59406;45.602;11.904;2022-07-29T06:06:34;7.88;;;4.30;;
59571;SDS011;59406;45.602;11.904;2022-07-29T06:09:01;7.97;;;4.07;;
59571;SDS011;59406;45.602;11.904;2022-07-29T06:11:27;6.80;;;4.03;;
59571;SDS011;59406;45.602;11.904;2022-07-29T06:13:53;9.10;;;4.20;;
59571;SDS011;59406;45.602;11.904;2022-07-29T06:16:19;6.45;;;3.95;;
59571;SDS011;59406;45.602;11.904;2022-07-29T06:18:45;8.23;;;3.80;;
59571;SDS011;59406;45.602;11.904;2022-07-29T06:21:11;6.22;;;3.28;;
59571;SDS011;59406;45.602;11.904;2022-07-29T06:23:38;5.43;;;3.10;;
59571;SDS011;59406;45.602;11.904;2022-07-29T06:26:05;5.78;;;3.63;;
59571;SDS011;59406;45.602;11.904;2022-07-29T06:28:32;5.80;;;3.83;;
59571;SDS011;59406;45.602;11.904;2022-07-29T06:30:58;7.40;;;3.30;;
59571;SDS011;59406;45.602;11.904;2022-07-29T06:33:24;6.07;;;3.35;;
59571;SDS011;59406;45.602;11.904;2022-07-29T06:35:50;5.13;;;3.05;;
59571;SDS011;59406;45.602;11.904;2022-07-29T06:38:16;5.03;;;2.63;;
59571;SDS011;59406;45.602;11.904;2022-07-29T06:40:43;6.93;;;3.50;;
59571;SDS011;59406;45.602;11.904;2022-07-29T06:43:33;6.35;;;3.17;;
59571;SDS011;59406;45.602;11.904;2022-07-29T06:46:04;5.22;;;3.22;;
59571;SDS011;59406;45.602;11.904;2022-07-29T06:48:35;6.65;;;3.17;;
59571;SDS011;59406;45.602;11.904;2022-07-29T06:51:03;5.00;;;2.80;;
59571;SDS011;59406;45.602;11.904;2022-07-29T06:53:30;6.80;;;3.50;;
59571;SDS011;59406;45.602;11.904;2022-07-29T06:55:57;5.85;;;2.97;;
59571;SDS011;59406;45.602;11.904;2022-07-29T06:58:28;5.03;;;2.65;;
59571;SDS011;59406;45.602;11.904;2022-07-29T07:00:55;4.97;;;3.00;;
59571;SDS011;59406;45.602;11.904;2022-07-29T07:03:22;5.93;;;3.28;;
59571;SDS011;59406;45.602;11.904;2022-07-29T07:05:49;6.20;;;4.13;;
59571;SDS011;59406;45.602;11.904;2022-07-29T07:08:15;9.00;;;5.65;;
59571;SDS011;59406;45.602;11.904;2022-07-29T07:10:41;8.35;;;4.18;;
59571;SDS011;59406;45.602;11.904;2022-07-29T07:13:08;5.85;;;3.38;;
59571;SDS011;59406;45.602;11.904;2022-07-29T07:15:35;6.00;;;3.17;;
59571;SDS011;59406;45.602;11.904;2022-07-29T07:18:03;5.90;;;3.20;;
59571;SDS011;59406;45.602;11.904;2022-07-29T07:20:31;7.35;;;3.20;;
59571;SDS011;59406;45.602;11.904;2022-07-29T07:23:01;6.28;;;2.92;;
59571;SDS011;59406;45.602;11.904;2022-07-29T07:25:27;5.45;;;3.25;;
59571;SDS011;59406;45.602;11.904;2022-07-29T07:27:53;5.28;;;2.80;;
59571;SDS011;59406;45.602;11.904;2022-07-29T07:30:19;5.10;;;3.10;;
59571;SDS011;59406;45.602;11.904;2022-07-29T07:32:45;5.50;;;3.40;;
59571;SDS011;59406;45.602;11.904;2022-07-29T07:35:11;9.50;;;4.03;;
59571;SDS011;59406;45.602;11.904;2022-07-29T07:37:37;7.38;;;3.33;;
59571;SDS011;59406;45.602;11.904;2022-07-29T07:40:06;4.80;;;3.17;;
59571;SDS011;59406;45.602;11.904;2022-07-29T07:42:33;6.40;;;3.20;;
59571;SDS011;59406;45.602;11.904;2022-07-29T07:44:59;6.97;;;3.58;;
59571;SDS011;59406;45.602;11.904;2022-07-29T07:47:26;5.22;;;3.10;;
59571;SDS011;59406;45.602;11.904;2022-07-29T07:49:52;6.10;;;3.10;;
59571;SDS011;59406;45.602;11.904;2022-07-29T07:52:19;5.07;;;2.88;;
59571;SDS011;59406;45.602;11.904;2022-07-29T07:54:47;5.68;;;2.97;;
59571;SDS011;59406;45.602;11.904;2022-07-29T07:57:14;4.60;;;2.75;;
59571;SDS011;59406;45.602;11.904;2022-07-29T07:59:41;6.03;;;3.42;;
59571;SDS011;59406;45.602;11.904;2022-07-29T08:02:07;5.53;;;3.30;;
59571;SDS011;59406;45.602;11.904;2022-07-29T08:04:34;5.28;;;3.20;;
59571;SDS011;59406;45.602;11.904;2022-07-29T08:07:00;6.25;;;3.40;;
59571;SDS011;59406;45.602;11.904;2022-07-29T08:09:29;7.00;;;3.38;;
59571;SDS011;59406;45.602;11.904;2022-07-29T08:11:56;6.05;;;3.20;;
59571;SDS011;59406;45.602;11.904;2022-07-29T08:14:23;5.07;;;3.13;;
59571;SDS011;59406;45.602;11.904;2022-07-29T08:16:50;6.60;;;3.58;;
59571;SDS011;59406;45.602;11.904;2022-07-29T08:19:16;5.20;;;3.67;;
59571;SDS011;59406;45.602;11.904;2022-07-29T08:21:42;5.95;;;4.05;;
59571;SDS011;59406;45.602;11.904;2022-07-29T08:24:08;7.23;;;3.70;;
59571;SDS011;59406;45.602;11.904;2022-07-29T08:26:53;6.90;;;3.92;;
59571;SDS011;59406;45.602;11.904;2022-07-29T08:29:19;7.30;;;4.10;;
59571;SDS011;59406;45.602;11.904;2022-07-29T08:31:45;5.10;;;3.65;;
59571;SDS011;59406;45.602;11.904;2022-07-29T08:34:11;6.43;;;4.00;;
59571;SDS011;59406;45.602;11.904;2022-07-29T08:36:37;5.70;;;3.77;;
59571;SDS011;59406;45.602;11.904;2022-07-29T08:39:03;6.80;;;4.50;;
59571;SDS011;59406;45.602;11.904;2022-07-29T08:41:30;6.93;;;3.85;;
59571;SDS011;59406;45.602;11.904;2022-07-29T08:43:56;5.57;;;4.00;;
59571;SDS011;59406;45.602;11.904;2022-07-29T08:46:22;5.95;;;4.00;;
59571;SDS011;59406;45.602;11.904;2022-07-29T08:48:48;6.57;;;3.90;;
59571;SDS011;59406;45.602;11.904;2022-07-29T08:51:15;6.88;;;4.05;;
59571;SDS011;59406;45.602;11.904;2022-07-29T08:53:46;5.40;;;3.70;;
59571;SDS011;59406;45.602;11.904;2022-07-29T08:56:16;6.32;;;3.60;;
59571;SDS011;59406;45.602;11.904;2022-07-29T08:58:43;5.55;;;3.80;;
59571;SDS011;59406;45.602;11.904;2022-07-29T09:01:12;5.93;;;3.60;;
59571;SDS011;59406;45.602;11.904;2022-07-29T09:03:42;5.28;;;4.00;;
59571;SDS011;59406;45.602;11.904;2022-07-29T09:06:14;5.95;;;4.10;;
59571;SDS011;59406;45.602;11.904;2022-07-29T09:08:42;5.88;;;3.83;;
59571;SDS011;59406;45.602;11.904;2022-07-29T09:11:10;6.47;;;3.90;;
59571;SDS011;59406;45.602;11.904;2022-07-29T09:13:37;4.60;;;3.67;;
59571;SDS011;59406;45.602;11.904;2022-07-29T09:16:03;6.68;;;4.22;;
59571;SDS011;59406;45.602;11.904;2022-07-29T09:18:33;6.18;;;4.10;;
59571;SDS011;59406;45.602;11.904;2022-07-29T09:21:08;6.80;;;4.30;;
59571;SDS011;59406;45.602;11.904;2022-07-29T09:24:07;6.30;;;4.45;;
59571;SDS011;59406;45.602;11.904;2022-07-29T09:26:35;5.80;;;4.23;;
59571;SDS011;59406;45.602;11.904;2022-07-29T09:29:17;6.38;;;4.43;;
59571;SDS011;59406;45.602;11.904;2022-07-29T09:31:51;5.40;;;4.20;;
59571;SDS011;59406;45.602;11.904;2022-07-29T09:34:27;5.30;;;4.60;;
59571;SDS011;59406;45.602;11.904;2022-07-29T09:36:56;6.35;;;4.60;;
59571;SDS011;59406;45.602;11.904;2022-07-29T09:39:27;6.07;;;4.63;;
59571;SDS011;59406;45.602;11.904;2022-07-29T09:41:55;6.15;;;3.80;;
59571;SDS011;59406;45.602;11.904;2022-07-29T09:44:23;5.47;;;4.47;;
59571;SDS011;59406;45.602;11.904;2022-07-29T09:46:54;6.05;;;4.25;;
59571;SDS011;59406;45.602;11.904;2022-07-29T09:49:30;4.82;;;4.32;;
59571;SDS011;59406;45.602;11.904;2022-07-29T09:52:03;5.47;;;4.20;;
59571;SDS011;59406;45.602;11.904;2022-07-29T09:54:34;5.68;;;4.30;;
59571;SDS011;59406;45.602;11.904;2022-07-29T09:57:05;6.63;;;5.10;;
59571;SDS011;59406;45.602;11.904;2022-07-29T09:59:34;5.40;;;4.40;;
59571;SDS011;59406;45.602;11.904;2022-07-29T10:02:00;5.43;;;4.50;;
59571;SDS011;59406;45.602;11.904;2022-07-29T10:04:37;6.17;;;4.87;;
59571;SDS011;59406;45.602;11.904;2022-07-29T10:07:04;5.80;;;4.82;;
59571;SDS011;59406;45.602;11.904;2022-07-29T10:09:31;5.90;;;4.82;;
59571;SDS011;59406;45.602;11.904;2022-07-29T10:12:02;5.65;;;5.10;;
59571;SDS011;59406;45.602;11.904;2022-07-29T10:14:28;5.75;;;4.88;;
59571;SDS011;59406;45.602;11.904;2022-07-29T10:16:56;5.77;;;4.93;;
59571;SDS011;59406;45.602;11.904;2022-07-29T10:19:25;6.70;;;5.47;;
59571;SDS011;59406;45.602;11.904;2022-07-29T10:21:52;6.35;;;4.97;;
59571;SDS011;59406;45.602;11.904;2022-07-29T10:24:18;6.93;;;6.22;;
59571;SDS011;59406;45.602;11.904;2022-07-29T10:26:44;6.93;;;6.20;;
59571;SDS011;59406;45.602;11.904;2022-07-29T10:29:12;6.13;;;5.53;;
59571;SDS011;59406;45.602;11.904;2022-07-29T10:31:48;6.25;;;5.65;;
59571;SDS011;59406;45.602;11.904;2022-07-29T10:34:32;7.07;;;5.93;;
59571;SDS011;59406;45.602;11.904;2022-07-29T10:39:32;6.83;;;6.23;;
59571;SDS011;59406;45.602;11.904;2022-07-29T10:44:39;6.55;;;5.50;;
59571;SDS011;59406;45.602;11.904;2022-07-29T10:47:06;7.63;;;6.93;;
59571;SDS011;59406;45.602;11.904;2022-07-29T10:49:32;6.03;;;5.17;;
59571;SDS011;59406;45.602;11.904;2022-07-29T10:54:37;6.65;;;5.95;;
59571;SDS011;59406;45.602;11.904;2022-07-29T11:07:29;7.93;;;7.13;;
59571;SDS011;59406;45.602;11.904;2022-07-29T11:15:15;7.40;;;6.80;;
59571;SDS011;59406;45.602;11.904;2022-07-29T11:23:00;8.23;;;7.38;;
59571;SDS011;59406;45.602;11.904;2022-07-29T11:25:26;7.85;;;7.15;;
59571;SDS011;59406;45.602;11.904;2022-07-29T11:27:53;8.03;;;7.33;;
59571;SDS011;59406;45.602;11.904;2022-07-29T11:33:30;8.20;;;7.60;;
59571;SDS011;59406;45.602;11.904;2022-07-29T11:36:07;8.93;;;8.23;;
59571;SDS011;59406;45.602;11.904;2022-07-29T11:38:34;8.48;;;7.78;;
59571;SDS011;59406;45.602;11.904;2022-07-29T11:43:55;8.90;;;8.20;;
59571;SDS011;59406;45.602;11.904;2022-07-29T11:49:25;9.40;;;8.65;;
59571;SDS011;59406;45.602;11.904;2022-07-29T11:51:52;9.07;;;8.30;;
59571;SDS011;59406;45.602;11.904;2022-07-29T11:54:26;8.70;;;8.00;;
59571;SDS011;59406;45.602;11.904;2022-07-29T11:56:57;8.80;;;8.00;;
59571;SDS011;59406;45.602;11.904;2022-07-29T11:59:24;9.77;;;9.07;;
59571;SDS011;59406;45.602;11.904;2022-07-29T12:01:53;9.38;;;8.68;;
59571;SDS011;59406;45.602;11.904;2022-07-29T12:04:20;9.25;;;8.63;;
59571;SDS011;59406;45.602;11.904;2022-07-29T12:06:52;9.20;;;8.40;;
59571;SDS011;59406;45.602;11.904;2022-07-29T12:09:20;9.32;;;8.52;;
59571;SDS011;59406;45.602;11.904;2022-07-29T12:11:47;10.00;;;9.20;;
59571;SDS011;59406;45.602;11.904;2022-07-29T12:14:29;9.02;;;8.32;;
59571;SDS011;59406;45.602;11.904;2022-07-29T12:16:57;10.25;;;9.45;;
59571;SDS011;59406;45.602;11.904;2022-07-29T12:19:24;8.97;;;8.27;;
59571;SDS011;59406;45.602;11.904;2022-07-29T12:21:52;9.88;;;9.18;;
59571;SDS011;59406;45.602;11.904;2022-07-29T12:24:20;9.65;;;8.93;;
59571;SDS011;59406;45.602;11.904;2022-07-29T12:26:56;9.80;;;9.10;;
59571;SDS011;59406;45.602;11.904;2022-07-29T12:29:23;10.50;;;9.70;;
59571;SDS011;59406;45.602;11.904;2022-07-29T12:31:53;10.40;;;9.70;;
59571;SDS011;59406;45.602;11.904;2022-07-29T12:34:20;10.63;;;9.93;;
59571;SDS011;59406;45.602;11.904;2022-07-29T12:36:49;9.95;;;9.20;;
59571;SDS011;59406;45.602;11.904;2022-07-29T12:39:16;9.93;;;9.23;;
59571;SDS011;59406;45.602;11.904;2022-07-29T12:41:42;10.30;;;9.60;;
59571;SDS011;59406;45.602;11.904;2022-07-29T12:44:09;10.83;;;10.03;;
59571;SDS011;59406;45.602;11.904;2022-07-29T12:46:36;11.20;;;10.40;;
59571;SDS011;59406;45.602;11.904;2022-07-29T12:49:02;10.40;;;9.70;;
59571;SDS011;59406;45.602;11.904;2022-07-29T12:54:10;10.40;;;9.60;;
59571;SDS011;59406;45.602;11.904;2022-07-29T12:56:41;11.20;;;9.73;;
59571;SDS011;59406;45.602;11.904;2022-07-29T12:59:12;10.35;;;9.40;;
59571;SDS011;59406;45.602;11.904;2022-07-29T13:01:40;11.00;;;10.20;;
59571;SDS011;59406;45.602;11.904;2022-07-29T13:04:08;10.07;;;9.20;;
59571;SDS011;59406;45.602;11.904;2022-07-29T13:09:13;11.80;;;10.83;;
59571;SDS011;59406;45.602;11.904;2022-07-29T13:11:40;10.32;;;9.52;;
59571;SDS011;59406;45.602;11.904;2022-07-29T13:14:30;11.45;;;10.75;;
59571;SDS011;59406;45.602;11.904;2022-07-29T13:17:07;11.63;;;10.82;;
59571;SDS011;59406;45.602;11.904;2022-07-29T13:19:42;12.15;;;11.15;;
59571;SDS011;59406;45.602;11.904;2022-07-29T13:22:10;11.77;;;11.03;;
59571;SDS011;59406;45.602;11.904;2022-07-29T13:24:56;11.25;;;10.45;;
59571;SDS011;59406;45.602;11.904;2022-07-29T13:27:28;10.65;;;9.80;;
59571;SDS011;59406;45.602;11.904;2022-07-29T13:29:57;11.32;;;10.60;;
59571;SDS011;59406;45.602;11.904;2022-07-29T13:32:25;10.63;;;9.93;;
59571;SDS011;59406;45.602;11.904;2022-07-29T13:34:53;11.03;;;10.20;;
59571;SDS011;59406;45.602;11.904;2022-07-29T13:37:19;10.98;;;10.18;;
59571;SDS011;59406;45.602;11.904;2022-07-29T13:39:46;11.07;;;10.27;;
59571;SDS011;59406;45.602;11.904;2022-07-29T13:42:12;9.98;;;9.23;;
59571;SDS011;59406;45.602;11.904;2022-07-29T13:44:39;10.40;;;9.52;;
59571;SDS011;59406;45.602;11.904;2022-07-29T13:47:05;10.57;;;9.73;;
59571;SDS011;59406;45.602;11.904;2022-07-29T13:49:32;9.52;;;8.82;;
59571;SDS011;59406;45.602;11.904;2022-07-29T13:51:59;10.20;;;9.40;;
59571;SDS011;59406;45.602;11.904;2022-07-29T13:54:26;11.35;;;10.30;;
59571;SDS011;59406;45.602;11.904;2022-07-29T13:56:51;10.82;;;10.05;;
59571;SDS011;59406;45.602;11.904;2022-07-29T13:59:18;10.10;;;9.30;;
59571;SDS011;59406;45.602;11.904;2022-07-29T14:01:44;11.25;;;10.55;;
59571;SDS011;59406;45.602;11.904;2022-07-29T14:04:10;11.52;;;10.73;;
59571;SDS011;59406;45.602;11.904;2022-07-29T14:06:36;11.20;;;10.40;;
59571;SDS011;59406;45.602;11.904;2022-07-29T14:09:02;10.67;;;9.87;;
59571;SDS011;59406;45.602;11.904;2022-07-29T14:11:34;11.18;;;10.48;;
59571;SDS011;59406;45.602;11.904;2022-07-29T14:14:00;10.50;;;9.65;;
59571;SDS011;59406;45.602;11.904;2022-07-29T14:16:26;11.15;;;10.35;;
59571;SDS011;59406;45.602;11.904;2022-07-29T14:18:52;10.63;;;9.93;;
59571;SDS011;59406;45.602;11.904;2022-07-29T14:21:18;11.13;;;10.23;;
59571;SDS011;59406;45.602;11.904;2022-07-29T14:23:44;10.30;;;9.52;;
59571;SDS011;59406;45.602;11.904;2022-07-29T14:26:10;10.03;;;8.50;;
59571;SDS011;59406;45.602;11.904;2022-07-29T14:28:36;9.40;;;8.60;;
59571;SDS011;59406;45.602;11.904;2022-07-29T14:31:02;9.13;;;8.32;;
59571;SDS011;59406;45.602;11.904;2022-07-29T14:33:28;8.95;;;8.25;;
59571;SDS011;59406;45.602;11.904;2022-07-29T14:35:54;8.90;;;8.20;;
59571;SDS011;59406;45.602;11.904;2022-07-29T14:38:20;9.32;;;8.63;;
59571;SDS011;59406;45.602;11.904;2022-07-29T14:40:46;8.20;;;7.60;;
59571;SDS011;59406;45.602;11.904;2022-07-29T14:43:12;7.10;;;6.40;;
59571;SDS011;59406;45.602;11.904;2022-07-29T14:45:39;7.50;;;6.80;;
59571;SDS011;59406;45.602;11.904;2022-07-29T14:48:05;7.68;;;7.07;;
59571;SDS011;59406;45.602;11.904;2022-07-29T14:50:32;7.38;;;6.78;;
59571;SDS011;59406;45.602;11.904;2022-07-29T14:52:58;6.82;;;6.28;;
59571;SDS011;59406;45.602;11.904;2022-07-29T14:55:25;8.50;;;7.07;;
59571;SDS011;59406;45.602;11.904;2022-07-29T14:57:52;7.40;;;6.70;;
59571;SDS011;59406;45.602;11.904;2022-07-29T15:00:18;7.30;;;6.70;;
59571;SDS011;59406;45.602;11.904;2022-07-29T15:02:46;6.40;;;5.80;;
59571;SDS011;59406;45.602;11.904;2022-07-29T15:05:13;6.20;;;5.60;;
59571;SDS011;59406;45.602;11.904;2022-07-29T15:07:39;7.57;;;6.10;;
59571;SDS011;59406;45.602;11.904;2022-07-29T15:10:05;7.13;;;6.53;;
59571;SDS011;59406;45.602;11.904;2022-07-29T15:12:32;6.60;;;6.00;;
59571;SDS011;59406;45.602;11.904;2022-07-29T15:14:58;7.72;;;6.18;;
59571;SDS011;59406;45.602;11.904;2022-07-29T15:17:24;7.63;;;6.50;;
59571;SDS011;59406;45.602;11.904;2022-07-29T15:19:50;9.87;;;5.77;;
59571;SDS011;59406;45.602;11.904;2022-07-29T15:22:16;7.63;;;5.70;;
59571;SDS011;59406;45.602;11.904;2022-07-29T15:24:43;6.80;;;5.55;;
59571;SDS011;59406;45.602;11.904;2022-07-29T15:27:09;7.28;;;5.30;;
59571;SDS011;59406;45.602;11.904;2022-07-29T15:29:42;8.63;;;5.10;;